Weather observations for the past three days for
Mercury, Desert Rock Airport
Metric (Imperial)
Date Time (pdt) Wind (kph) Vis. (km) Weather Sky Cond. Temperature (ºC) Relative Humidity Wind Chill (°C) Heat Index (°C) Pressure Precipitation (cm)
Air Dwpt 6 hour altimeter (cm) sea level (mb) 1 hr 3 hr 6 hr
Max. Min.
08 04:53 N 6 16.09 Fair CLR 16.1 -5 26.1 15 23% 76.07 1010.0
08 03:53 NW 13 16.09 Fair CLR 18.3 -5 20% 76.07 1009.6
08 02:53 N 15 16.09 Fair CLR 19.4 -5 19% 76.07 1009.5
08 01:53 W 11 16.09 Fair CLR 20.6 -5 17% 76.07 1009.5
08 00:53 W 15 16.09 Fair CLR 22.2 -5 16% 76.07 1009.3
07 23:53 NW 17 16.09 Fair CLR 21.1 -5.6 16% 76.05 1009.1
07 22:53 N 15 16.09 Fair CLR 22.8 -5.6 31.7 21.7 15% 76 1008.7
07 21:53 NW 17 16.09 Fair CLR 22.2 -7.8 13% 76.02 1009.1
07 20:53 N 9 16.09 Fair CLR 23.9 -7.2 12% 24 75.97 1008.6
07 19:53 S 11 16.09 Fair CLR 27.2 -7.8 9% 26 75.95 1008.0
07 18:53 S 20 16.09 Fair CLR 30 -7.2 8% 28 75.92 1008.0
07 17:53 S 15 G 37 16.09 Fair CLR 31.1 -6.7 8% 29 75.95 1008.3
07 16:53 S 20 G 35 16.09 Fair CLR 31.7 -5.6 32.2 26.1 8% 30 75.97 1008.6
07 15:53 S 13 G 30 16.09 Fair CLR 31.7 -5 9% 30 76.02 1009.3
07 14:53 Vrbl 7 16.09 Fair CLR 30.6 -5.6 9% 29 76.1 1010.2
07 13:53 Vrbl 6 16.09 Fair CLR 29.4 -3.9 11% 28 76.17 1011.5
07 12:53 S 13 G 30 16.09 Fair CLR 30 -2.2 12% 28 76.2 1011.8
07 11:53 SW 13 16.09 Fair CLR 28.3 -1.7 14% 27 76.28 1012.8
07 10:53 Vrbl 11 16.09 Fair CLR 26.7 -1.1 26.7 11.7 16% 26 76.33 1013.4
07 09:53 Vrbl 6 16.09 Fair CLR 24.4 -2.2 17% 24 76.35 1014.0
07 08:53 Calm 16.09 Fair CLR 22.2 -3.9 17% 76.38 1014.3
07 07:53 Calm 16.09 Fair CLR 19.4 -3.9 20% 76.4 1014.6
07 06:53 Calm 16.09 Fair CLR 15.6 -2.2 30% 76.38 1014.5
07 05:53 NE 7 16.09 Fair CLR 13.3 -2.2 34% 76.35 1014.1
07 04:53 NE 13 16.09 Fair CLR 12.8 -2.2 19.4 11.7 36% 76.33 1013.8
07 03:53 E 6 16.09 Fair CLR 12.8 -2.2 36% 76.33 1013.7
07 02:53 Calm 16.09 Fair CLR 14.4 -3.9 28% 76.33 1013.6
07 01:53 Calm 16.09 Fair CLR 12.8 -2.8 34% 76.33 1013.9
07 00:53 E 7 16.09 Fair CLR 15.6 -2.2 30% 76.3 1013.6
06 23:53 N 7 16.09 Fair CLR 17.2 -1.7 28% 76.28 1013.3
06 22:53 NW 13 16.09 Fair CLR 19.4 -1.7 29.4 18.9 24% 76.25 1012.7
06 21:53 N 7 16.09 Fair CLR 20 -2.2 22% 76.23 1012.6
06 20:53 NW 7 16.09 Fair CLR 21.7 -1.7 21% 76.17 1012.0
06 19:53 S 11 16.09 Fair CLR 24.4 -1.1 18% 25 76.12 1011.1
06 18:53 SW 22 16.09 Fair CLR 27.2 -0.6 16% 26 76.07 1010.5
06 17:53 NE 13 16.09 Fair CLR 29.4 -7.8 8% 28 76.07 1010.5
06 16:53 Vrbl 9 G 33 16.09 Fair CLR 29.4 -6.7 29.4 20.6 9% 28 76.07 1010.2
06 15:53 N 24 G 39 16.09 Fair CLR 29.4 -4.4 11% 28 76.1 1010.5
06 14:53 N 24 G 37 16.09 Fair CLR 28.9 -2.8 12% 27 76.15 1011.2
06 13:53 N 24 G 43 16.09 Fair CLR 27.8 -3.9 12% 26 76.17 1011.6
06 12:53 Calm 16.09 Fair CLR 25.6 0 19% 25 76.25 1012.8
06 11:53 Vrbl 7 16.09 Fair CLR 22.8 1.1 24% 76.3 1013.7
06 10:53 S 13 16.09 Fair CLR 21.1 1.7 21.1 10.6 28% 76.33 1014.3
06 09:53 Vrbl 7 16.09 Fair CLR 19.4 1.1 30% 76.33 1014.5
06 08:53 Vrbl 9 16.09 Fair CLR 17.2 0.6 33% 76.33 1014.3
06 07:53 Calm 16.09 Fair CLR 15.6 0.6 36% 76.3 1014.3
06 06:53 W 9 16.09 Fair CLR 13.3 0 40% 76.25 1013.7
06 05:53 N 9 16.09 Fair CLR 10.6 -2.2 41% 76.17 1012.8
06 04:53 NW 6 16.09 Fair CLR 12.2 -1.7 17.2 11.7 38% 76.12 1012.0
06 03:53 NW 9 16.09 Fair CLR 12.8 -1.7 37% 76.1 1011.4
06 02:53 Vrbl 9 16.09 Fair CLR 13.9 -1.7 34% 76.05 1010.7
06 01:53 NW 6 16.09 Fair CLR 14.4 -1.7 33% 76.02 1010.3
06 00:53 NW 11 16.09 Fair CLR 14.4 -2.2 32% 76.02 1010.2
05 23:53 NW 9 16.09 Fair CLR 15 -2.2 31% 76 1010.1
05 22:53 W 7 16.09 Fair CLR 16.7 -1.7 21.7 15.6 29% 75.97 1009.7
05 21:53 W 13 16.09 Fair CLR 15.6 -2.8 28% 75.95 1009.5
05 20:53 SW 13 16.09 Fair CLR 17.2 -3.3 25% 75.87 1008.7
05 19:53 SW 13 16.09 Fair CLR 18.3 -3.3 23% 75.79 1007.6
05 18:53 S 17 16.09 Fair CLR 19.4 -2.2 23% 75.74 1006.9
05 17:53 S 19 16.09 Fair CLR 21.1 -1.7 22% 75.72 1006.7
05 16:53 S 17 G 35 16.09 Fair CLR 20.6 -1.1 22.2 16.1 23% 75.72 1006.4
05 14:53 S 15 G 31 16.09 Fair CLR 20 -0.6 25% 75.77 1007.2
05 13:53 Vrbl 11 G 30 16.09 Fair CLR 19.4 0 27% 75.82 1007.9
05 12:53 S 19 G 31 16.09 Fair CLR 19.4 0.6 29% 75.84 1007.9
05 11:53 S 17 G 28 16.09 Fair CLR 18.3 1.1 32% 75.87 1008.3
05 10:53 Vrbl 7 16.09 Fair CLR 16.1 1.1 16.7 8.9 36% 75.87 1008.5
05 09:53 SE 9 16.09 Fair CLR 15 1.7 41% 75.87 1008.6
05 08:53 Vrbl 6 16.09 Fair CLR 13.3 1.7 46% 75.87 1008.6
05 07:53 NW 7 16.09 Fair CLR 12.2 1.7 49% 75.84 1008.4
05 06:53 NW 6 16.09 Fair CLR 10 1.1 54% 75.79 1007.7
05 05:53 NW 7 16.09 Fair CLR 8.9 1.1 58% 8 75.77 1007.3
Date Time (pdt) Wind (kph) Vis. (km) Weather Sky Cond. Air Dwpt Max. Min. Relative Humidity Wind Chill (°C) Heat Index (°C) altimeter (cm) sea level (mb) 1 hr 3 hr 6 hr
6 hour
Temperature (ºC) Pressure Precipitation (cm)